Time;durP1;ratioP1;P1;durP2;ratioP2;P2;SDS_P1;SDS_P2;PMS_P1;PMS_P2;Temp;Humidity;BMP_temperature;BMP_pressure;BME280_temperature;BME280_humidity;BME280_pressure;Samples;Min_cycle;Max_cycle;Signal;HPM_P1;HPM_P2
2022/06/24 00:02:10;;;;;;;6.50;4.47;;;25.30;51.70;;;;;;5053502;28;20028;-37
2022/06/24 00:04:37;;;;;;;4.97;3.90;;;25.30;51.70;;;;;;5053362;28;20028;-38
2022/06/24 00:07:14;;;;;;;8.25;4.07;;;25.20;51.90;;;;;;5053476;28;20513;-37
2022/06/24 00:09:41;;;;;;;4.57;4.13;;;25.30;52.10;;;;;;5053985;28;20017;-37
2022/06/24 00:12:09;;;;;;;4.38;3.92;;;25.20;52.30;;;;;;5053532;28;20095;-38
2022/06/24 00:14:37;;;;;;;6.85;3.97;;;25.30;52.20;;;;;;5053894;28;20048;-37
2022/06/24 00:17:09;;;;;;;6.75;3.75;;;25.30;52.40;;;;;;5053171;28;20021;-37
2022/06/24 00:19:56;;;;;;;5.93;4.18;;;25.20;53.10;;;;;;5051741;28;20029;-37
2022/06/24 00:22:23;;;;;;;6.05;4.38;;;24.90;54.20;;;;;;5053478;28;20469;-37
2022/06/24 00:25:05;;;;;;;6.50;4.22;;;25.00;54.40;;;;;;5052964;28;20021;-36
2022/06/24 00:27:30;;;;;;;5.32;4.38;;;25.00;54.80;;;;;;5053166;28;20060;-36
2022/06/24 00:29:56;;;;;;;6.63;5.15;;;24.90;55.50;;;;;;5053122;28;20186;-38
2022/06/24 00:32:32;;;;;;;8.65;5.47;;;25.00;56.10;;;;;;5053162;28;20108;-37
2022/06/24 00:35:06;;;;;;;6.80;4.82;;;25.00;57.00;;;;;;5053305;28;20112;-38
2022/06/24 00:37:33;;;;;;;6.50;4.85;;;25.00;57.20;;;;;;5053513;28;20022;-38
2022/06/24 00:40:14;;;;;;;6.65;4.50;;;24.90;57.40;;;;;;5052817;28;20021;-37
2022/06/24 00:42:45;;;;;;;6.93;4.38;;;24.80;57.90;;;;;;5052903;28;20495;-36
2022/06/24 00:45:17;;;;;;;5.70;4.15;;;24.80;58.00;;;;;;5053187;28;20031;-37
2022/06/24 00:47:43;;;;;;;9.50;4.40;;;24.80;58.30;;;;;;5052743;28;20029;-38
2022/06/24 00:50:26;;;;;;;7.55;4.15;;;24.80;58.40;;;;;;5051899;28;20099;-37
2022/06/24 00:52:55;;;;;;;10.57;4.93;;;24.80;58.80;;;;;;5052303;28;20469;-37
2022/06/24 00:55:32;;;;;;;8.70;4.80;;;24.70;59.10;;;;;;5052979;28;20044;-37
2022/06/24 00:57:59;;;;;;;6.60;4.30;;;24.80;58.80;;;;;;5052658;28;20075;-37
2022/06/24 01:00:27;;;;;;;9.45;5.20;;;24.80;58.70;;;;;;5053787;28;20029;-37
2022/06/24 01:03:03;;;;;;;8.55;4.63;;;24.80;59.10;;;;;;5056287;28;20025;-37
2022/06/24 01:05:29;;;;;;;7.15;4.95;;;24.80;59.90;;;;;;5056331;28;20362;-38
2022/06/24 01:07:56;;;;;;;9.18;4.75;;;24.70;60.20;;;;;;5054792;28;20096;-37
2022/06/24 01:10:22;;;;;;;7.85;5.20;;;24.70;60.40;;;;;;5056463;28;20083;-37
2022/06/24 01:12:48;;;;;;;6.32;4.88;;;24.60;61.10;;;;;;5038326;28;20074;-37
2022/06/24 01:15:13;;;;;;;13.57;5.20;;;24.50;59.70;;;;;;5056003;28;20486;-37
2022/06/24 01:17:39;;;;;;;6.18;4.35;;;24.60;59.40;;;;;;5056349;28;20021;-37
2022/06/24 01:20:09;;;;;;;5.53;4.10;;;24.60;58.90;;;;;;5056220;28;20365;-37
2022/06/24 01:22:35;;;;;;;6.63;4.20;;;24.50;58.60;;;;;;5056084;28;20358;-38
2022/06/24 01:25:01;;;;;;;7.53;4.25;;;24.50;59.20;;;;;;5056248;28;20067;-37
2022/06/24 01:27:27;;;;;;;10.15;4.95;;;24.50;60.60;;;;;;5056115;28;20372;-37
2022/06/24 01:29:53;;;;;;;6.32;5.03;;;24.30;64.10;;;;;;5055542;28;20029;-37
2022/06/24 01:32:18;;;;;;;8.95;5.88;;;24.00;66.10;;;;;;5054956;28;20025;-38
2022/06/24 01:34:44;;;;;;;10.68;5.90;;;23.90;66.50;;;;;;5054376;28;20450;-37
2022/06/24 01:37:10;;;;;;;16.10;5.40;;;23.90;67.10;;;;;;5055862;28;20095;-37
2022/06/24 01:39:36;;;;;;;10.13;5.80;;;23.50;69.80;;;;;;5055686;28;20025;-37
2022/06/24 01:42:01;;;;;;;14.98;5.97;;;23.40;71.00;;;;;;5055595;28;20024;-38
2022/06/24 01:44:27;;;;;;;11.52;5.78;;;23.30;72.50;;;;;;5055444;28;20496;-37
2022/06/24 01:46:53;;;;;;;11.38;5.78;;;23.10;73.60;;;;;;5055660;28;20025;-36
2022/06/24 01:49:18;;;;;;;13.30;6.65;;;22.80;74.80;;;;;;5054127;28;20031;-36
2022/06/24 01:51:48;;;;;;;15.10;6.78;;;22.80;76.00;;;;;;5054487;28;20032;-37
2022/06/24 01:54:14;;;;;;;9.63;5.75;;;22.80;76.40;;;;;;5055274;28;20053;-37
2022/06/24 01:56:39;;;;;;;19.60;8.45;;;22.80;76.60;;;;;;5055763;28;20064;-37
2022/06/24 01:59:05;;;;;;;18.70;9.45;;;22.60;77.30;;;;;;5055184;28;20029;-36
2022/06/24 02:01:31;;;;;;;17.35;9.50;;;22.40;78.90;;;;;;5055481;28;20021;-36
2022/06/24 02:03:56;;;;;;;16.88;8.68;;;22.30;79.20;;;;;;5055362;28;20025;-36
2022/06/24 02:06:22;;;;;;;15.75;9.95;;;22.30;79.60;;;;;;5055086;28;20069;-36
2022/06/24 02:08:48;;;;;;;19.55;11.10;;;22.30;79.90;;;;;;5053951;28;20186;-36
2022/06/24 02:14:01;;;;;;;22.60;13.60;;;22.20;80.80;;;;;;5055083;28;20098;-36
2022/06/24 02:16:27;;;;;;;23.05;12.00;;;21.90;81.80;;;;;;5053676;28;20017;-36
2022/06/24 02:18:54;;;;;;;21.95;14.02;;;22.00;82.00;;;;;;5054957;28;20028;-36
2022/06/24 02:21:23;;;;;;;27.08;15.65;;;21.80;82.90;;;;;;5055157;28;20025;-36
2022/06/24 02:23:49;;;;;;;22.35;15.13;;;21.90;82.90;;;;;;5054833;28;20035;-36
2022/06/24 02:26:15;;;;;;;18.27;13.75;;;21.90;82.80;;;;;;5054629;28;20104;-36
2022/06/24 02:28:40;;;;;;;23.40;14.40;;;21.90;82.60;;;;;;5054747;28;20557;-36
2022/06/24 02:31:06;;;;;;;25.98;16.08;;;21.90;82.60;;;;;;5054629;28;20021;-36
2022/06/24 02:33:32;;;;;;;25.08;15.10;;;21.90;82.80;;;;;;5054567;28;20056;-36
2022/06/24 02:35:58;;;;;;;22.02;14.80;;;22.00;82.70;;;;;;5054895;28;20071;-36
2022/06/24 02:38:24;;;;;;;22.35;12.82;;;21.90;82.90;;;;;;5054558;28;20378;-37
2022/06/24 02:40:52;;;;;;;19.50;10.02;;;22.00;82.40;;;;;;5054521;28;20060;-37
2022/06/24 02:43:24;;;;;;;15.10;8.02;;;22.00;81.60;;;;;;5054604;28;20024;-36
2022/06/24 02:45:51;;;;;;;10.55;7.72;;;21.80;82.00;;;;;;5054567;28;20021;-36
2022/06/24 02:48:18;;;;;;;14.20;8.13;;;21.80;82.10;;;;;;5054740;28;20100;-36
2022/06/24 02:50:52;;;;;;;13.50;7.22;;;21.80;82.20;;;;;;5053051;28;20071;-36
2022/06/24 02:53:20;;;;;;;20.52;9.05;;;21.80;82.10;;;;;;5054236;28;20461;-36
2022/06/24 02:55:47;;;;;;;8.55;6.55;;;21.80;81.80;;;;;;5054274;28;20028;-36
2022/06/24 02:58:14;;;;;;;10.32;6.68;;;21.90;81.20;;;;;;5054703;28;20017;-36
2022/06/24 03:00:41;;;;;;;13.38;7.47;;;21.70;81.90;;;;;;5054161;28;20325;-36
2022/06/24 20:18:42;;;;;;;7.28;5.55;;;19.50;90.20;;;;;;5112312;27;20532;-48
2022/06/24 20:21:07;;;;;;;12.65;5.50;;;19.50;90.30;;;;;;5110995;28;20048;-49
2022/06/24 20:23:36;;;;;;;7.95;5.43;;;19.60;90.10;;;;;;5111380;28;20425;-51
2022/06/24 20:26:09;;;;;;;6.97;5.35;;;19.50;89.90;;;;;;5111294;28;20023;-48
2022/06/24 20:28:37;;;;;;;7.35;5.13;;;19.50;89.80;;;;;;5111729;28;20077;-51
2022/06/24 20:31:04;;;;;;;7.63;5.78;;;19.60;89.80;;;;;;5092715;28;20383;-48
2022/06/24 20:33:31;;;;;;;7.72;6.55;;;19.60;89.90;;;;;;5092727;28;20058;-50
2022/06/24 20:35:57;;;;;;;10.07;6.20;;;19.50;89.90;;;;;;5110683;28;20502;-50
2022/06/24 20:38:27;;;;;;;12.13;8.90;;;19.50;90.20;;;;;;5111584;28;20027;-48
2022/06/24 20:40:54;;;;;;;15.52;7.68;;;19.50;90.40;;;;;;5130005;28;20106;-51
2022/06/24 20:43:19;;;;;;;7.07;6.32;;;19.50;90.50;;;;;;5119230;28;20032;-49
2022/06/24 20:45:45;;;;;;;6.40;5.75;;;19.60;90.60;;;;;;5132204;28;20034;-50
2022/06/24 20:48:11;;;;;;;6.93;5.85;;;19.70;90.20;;;;;;5132011;28;20423;-49
2022/06/24 20:50:37;;;;;;;8.55;5.70;;;19.60;89.90;;;;;;5131969;28;20076;-49
2022/06/24 20:53:04;;;;;;;8.73;5.55;;;19.50;90.10;;;;;;5132083;28;20031;-49
2022/06/24 20:55:30;;;;;;;5.85;5.25;;;19.60;90.10;;;;;;5113735;28;20035;-50
2022/06/24 20:57:55;;;;;;;5.35;4.82;;;19.50;90.20;;;;;;5132548;28;20371;-49
2022/06/24 21:00:21;;;;;;;5.60;5.10;;;19.50;89.80;;;;;;5132326;28;20019;-48
2022/06/24 21:02:47;;;;;;;6.40;5.80;;;19.50;89.60;;;;;;5113076;28;20051;-47
2022/06/24 21:05:13;;;;;;;8.43;5.30;;;19.50;89.50;;;;;;5130769;28;20352;-48
2022/06/24 21:07:38;;;;;;;5.15;4.65;;;19.50;89.20;;;;;;5130484;28;20023;-50
2022/06/24 21:10:05;;;;;;;5.80;5.20;;;19.40;88.80;;;;;;5130554;28;20058;-49
2022/06/24 21:12:31;;;;;;;5.25;4.15;;;19.40;89.10;;;;;;5112202;28;20403;-49
2022/06/24 21:14:57;;;;;;;6.85;4.82;;;19.40;88.90;;;;;;5130395;28;20160;-52
2022/06/24 21:17:22;;;;;;;6.03;4.68;;;19.40;88.90;;;;;;5108104;28;20047;-49
2022/06/24 21:19:48;;;;;;;5.75;4.82;;;19.30;89.00;;;;;;5109788;28;20024;-47
2022/06/24 21:22:14;;;;;;;7.53;5.28;;;19.30;89.20;;;;;;5109785;28;20028;-48
2022/06/24 21:24:39;;;;;;;6.30;3.80;;;19.30;88.90;;;;;;5110095;28;20375;-49
2022/06/24 21:27:05;;;;;;;4.82;4.43;;;19.20;88.50;;;;;;5091475;28;20114;-48
2022/06/24 21:29:31;;;;;;;7.28;4.05;;;19.20;88.70;;;;;;5098969;28;20039;-48
2022/06/24 21:31:59;;;;;;;5.45;4.28;;;19.20;88.40;;;;;;5095797;28;20024;-48
2022/06/24 21:34:26;;;;;;;5.60;3.55;;;19.20;88.20;;;;;;5095363;28;20028;-48
2022/06/24 21:36:52;;;;;;;5.32;3.90;;;19.00;88.10;;;;;;5095923;28;20480;-50
2022/06/24 21:39:18;;;;;;;10.70;4.28;;;19.10;88.30;;;;;;5095725;28;20365;-49
2022/06/24 21:41:44;;;;;;;4.47;3.78;;;19.10;88.00;;;;;;5095710;28;20114;-48
2022/06/24 21:44:10;;;;;;;5.40;3.42;;;19.30;87.70;;;;;;5095826;28;20022;-51
2022/06/24 21:46:36;;;;;;;4.72;3.97;;;19.20;87.50;;;;;;5096424;28;20024;-48
2022/06/24 21:49:02;;;;;;;4.32;3.90;;;19.20;87.60;;;;;;5095640;28;20047;-49
2022/06/24 21:51:28;;;;;;;6.22;4.40;;;19.20;88.10;;;;;;5095947;28;20024;-49
2022/06/24 21:53:53;;;;;;;7.30;4.60;;;19.30;87.60;;;;;;5095478;28;20039;-49
2022/06/24 21:56:19;;;;;;;8.45;5.30;;;19.10;87.80;;;;;;5095378;28;20031;-50
2022/06/24 21:58:45;;;;;;;7.47;5.68;;;19.20;87.80;;;;;;5095307;28;20027;-49
2022/06/24 22:01:10;;;;;;;6.15;5.03;;;19.30;87.20;;;;;;5095426;28;20486;-48
2022/06/24 22:03:36;;;;;;;5.05;4.25;;;19.30;87.20;;;;;;5095194;28;20020;-49
2022/06/24 22:06:02;;;;;;;5.75;5.03;;;19.10;87.60;;;;;;5095546;28;20061;-50
2022/06/24 22:08:28;;;;;;;7.28;5.03;;;19.10;88.00;;;;;;5093902;28;20128;-51
2022/06/24 22:10:54;;;;;;;7.20;4.40;;;19.10;88.00;;;;;;5095268;28;20028;-50
2022/06/24 22:13:21;;;;;;;5.78;4.43;;;19.10;88.20;;;;;;5095034;28;20107;-49
2022/06/24 22:15:47;;;;;;;5.60;4.97;;;19.20;87.90;;;;;;5093662;28;20024;-49
2022/06/24 22:18:13;;;;;;;7.15;5.60;;;19.10;87.60;;;;;;5111651;28;20050;-48
2022/06/24 22:20:39;;;;;;;5.05;4.55;;;18.90;88.30;;;;;;5115424;28;20433;-49
2022/06/24 22:23:05;;;;;;;5.55;4.57;;;18.90;88.60;;;;;;5115365;28;20024;-52
2022/06/24 22:25:30;;;;;;;9.02;5.32;;;18.90;88.70;;;;;;5097148;28;20067;-50
2022/06/24 22:28:01;;;;;;;6.80;4.68;;;18.90;88.40;;;;;;5115233;28;20061;-50
2022/06/24 22:30:27;;;;;;;;;;;18.90;88.20;;;;;;5116141;28;20022;-50
2022/06/24 22:32:54;;;;;;;5.03;4.53;;;18.90;88.10;;;;;;5115409;28;19908;-50
2022/06/24 22:35:19;;;;;;;6.70;4.55;;;18.90;88.40;;;;;;5115167;28;20479;-50
2022/06/24 22:37:45;;;;;;;9.25;4.65;;;18.80;88.30;;;;;;5114981;28;20053;-48
2022/06/24 22:40:12;;;;;;;7.07;5.20;;;18.90;88.40;;;;;;5113907;28;20020;-49
2022/06/24 22:42:38;;;;;;;8.18;6.85;;;18.80;88.40;;;;;;5115001;28;20038;-49
2022/06/24 22:45:05;;;;;;;9.05;4.57;;;18.80;88.50;;;;;;5115170;28;20028;-49
2022/06/24 22:47:30;;;;;;;7.72;4.90;;;18.80;88.60;;;;;;5115109;28;20039;-47
2022/06/24 22:49:56;;;;;;;6.03;4.22;;;18.70;89.10;;;;;;5115485;28;20028;-48
2022/06/24 22:52:21;;;;;;;7.15;5.20;;;18.70;89.10;;;;;;5114850;28;20536;-51
2022/06/24 22:54:47;;;;;;;5.15;4.60;;;18.60;89.30;;;;;;5114956;28;20049;-48
2022/06/24 22:57:14;;;;;;;4.78;4.10;;;18.40;89.60;;;;;;5115116;28;20039;-53
2022/06/24 22:59:41;;;;;;;7.47;4.88;;;18.30;89.90;;;;;;5114981;28;20015;-50
2022/06/24 23:02:08;;;;;;;7.28;5.30;;;18.40;90.10;;;;;;5096991;28;20015;-49
2022/06/24 23:04:34;;;;;;;10.25;4.57;;;18.50;89.50;;;;;;5114798;28;20098;-50
2022/06/24 23:06:59;;;;;;;5.78;4.68;;;18.50;89.20;;;;;;5114477;28;20024;-49
2022/06/24 23:09:26;;;;;;;5.93;4.40;;;18.50;88.90;;;;;;5114493;28;20430;-49
2022/06/24 23:11:53;;;;;;;6.78;4.22;;;18.60;88.50;;;;;;5114342;28;20084;-49
2022/06/24 23:14:18;;;;;;;13.07;4.50;;;18.60;88.40;;;;;;5114463;28;20051;-49
2022/06/24 23:16:44;;;;;;;6.13;4.43;;;18.50;88.30;;;;;;5113955;28;20090;-50
2022/06/24 23:19:10;;;;;;;5.68;4.03;;;18.60;88.10;;;;;;5114609;28;20112;-50
2022/06/24 23:21:35;;;;;;;5.65;3.50;;;18.70;87.80;;;;;;5114160;28;20383;-52
2022/06/24 23:24:01;;;;;;;8.35;4.88;;;18.60;87.90;;;;;;5114557;28;20019;-52
2022/06/24 23:26:26;;;;;;;6.47;4.53;;;18.50;88.00;;;;;;5114374;28;20104;-51
2022/06/24 23:28:52;;;;;;;5.05;3.65;;;18.50;88.10;;;;;;5095782;28;20020;-49
2022/06/24 23:31:18;;;;;;;7.50;4.32;;;18.50;88.20;;;;;;5114309;28;20026;-53
2022/06/24 23:33:44;;;;;;;5.45;4.00;;;18.60;87.70;;;;;;5114028;28;20073;-50
2022/06/24 23:36:09;;;;;;;7.95;4.15;;;18.60;87.50;;;;;;5113976;28;20030;-49
2022/06/24 23:38:35;;;;;;;7.00;3.75;;;18.50;87.80;;;;;;5096362;28;20058;-49
2022/06/24 23:41:01;;;;;;;8.80;4.10;;;18.40;87.90;;;;;;5095482;28;20016;-50
2022/06/24 23:43:28;;;;;;;8.02;4.22;;;18.40;87.90;;;;;;5113994;28;20412;-52
2022/06/24 23:45:54;;;;;;;7.53;3.88;;;18.50;87.90;;;;;;5113902;28;20032;-50
2022/06/24 23:53:49;;;;;;;8.43;3.83;;;18.30;88.40;;;;;;5114309;28;20069;-49
2022/06/24 23:56:15;;;;;;;10.40;4.50;;;18.30;88.50;;;;;;5113720;28;20023;-49
2022/06/24 23:58:40;;;;;;;5.50;4.22;;;18.20;88.70;;;;;;5113762;28;20027;-48
